createdAt,value
2017-10-19T17:48:09.093Z,92.88
2017-10-19T17:49:13.794Z,92.79
2017-10-19T17:50:16.615Z,92.69
2017-10-19T17:51:19.542Z,92.83
2017-10-19T17:52:22.593Z,93.07
2017-10-19T17:53:25.417Z,92.97
2017-10-19T17:54:28.319Z,92.79
2017-10-19T17:55:31.428Z,92.93
2017-10-19T17:56:34.324Z,93.02
2017-10-19T17:57:37.605Z,92.93
2017-10-19T17:58:40.438Z,92.97
2017-10-19T17:59:42.582Z,93.16
2017-10-19T18:00:45.394Z,93.07
2017-10-19T18:01:47.521Z,93.07
2017-10-19T18:02:49.658Z,93.65
2017-10-19T18:03:52.677Z,93.55
2017-10-19T18:04:55.996Z,93.55
2017-10-19T18:05:58.421Z,93.65
2017-10-19T18:07:01.090Z,93.65
2017-10-19T18:08:04.075Z,93.36
2017-10-19T18:09:07.280Z,93.93
2017-10-19T18:10:10.364Z,94.02
2017-10-19T18:11:13.409Z,93.36
2017-10-19T18:12:16.779Z,94.22
2017-10-19T18:13:19.989Z,94.31
2017-10-19T18:14:22.955Z,94.02
2017-10-19T18:15:27.206Z,93.84
2017-10-19T18:16:29.962Z,94.31
2017-10-19T18:17:32.925Z,94.70
2017-10-19T18:18:35.766Z,94.51
2017-10-19T18:19:39.238Z,94.41
2017-10-19T18:20:42.051Z,94.22
2017-10-19T18:21:44.958Z,94.12
2017-10-19T18:22:48.182Z,94.70
2017-10-19T18:23:51.013Z,94.22
2017-10-19T18:24:53.869Z,94.31
2017-10-19T18:25:57.434Z,94.79
2017-10-19T18:27:01.045Z,94.70
2017-10-19T18:28:04.417Z,94.70
2017-10-19T18:29:07.233Z,94.70
2017-10-19T18:30:10.213Z,95.07
2017-10-19T18:31:13.167Z,95.46
2017-10-19T18:32:16.033Z,95.27
2017-10-19T18:33:18.578Z,95.07
2017-10-19T18:34:21.457Z,95.27
2017-10-19T18:35:23.991Z,95.46
2017-10-19T18:36:27.214Z,95.84
2017-10-19T18:37:30.280Z,95.75
2017-10-19T18:38:34.613Z,95.70
2017-10-19T18:39:37.765Z,95.36
2017-10-19T18:40:40.524Z,95.75
2017-10-19T18:41:43.442Z,95.79
2017-10-19T18:42:46.779Z,95.70
2017-10-19T18:43:49.898Z,95.98
2017-10-19T18:44:52.687Z,96.17
2017-10-19T18:45:55.593Z,95.79
2017-10-19T18:46:57.618Z,96.46
2017-10-19T18:48:01.171Z,96.56
2017-10-19T18:49:03.972Z,96.66
2017-10-19T18:50:06.806Z,96.46
2017-10-19T18:51:10.045Z,96.46
2017-10-19T18:52:12.421Z,96.75
2017-10-19T18:53:14.730Z,96.75
2017-10-19T18:54:16.932Z,96.66
2017-10-19T18:55:19.061Z,97.42
2017-10-19T18:56:21.141Z,97.32
2017-10-19T18:57:23.471Z,97.23
2017-10-19T18:58:25.580Z,97.13
2017-10-19T18:59:27.741Z,97.23
2017-10-19T19:00:30.068Z,97.23
2017-10-19T19:01:32.201Z,97.32
2017-10-19T19:02:34.221Z,97.03
2017-10-19T19:03:36.310Z,97.13
2017-10-19T19:04:38.343Z,97.23
2017-10-19T19:05:41.412Z,97.42
2017-10-19T19:06:43.695Z,97.89
2017-10-19T19:07:46.503Z,97.61
2017-10-19T19:08:49.306Z,98.18
2017-10-19T19:09:52.081Z,98.28
2017-10-19T19:10:54.874Z,97.89
2017-10-19T19:11:58.096Z,98.18
2017-10-19T19:13:00.956Z,98.08
2017-10-19T19:14:03.790Z,98.18
2017-10-19T19:15:07.098Z,98.08
2017-10-19T19:16:09.857Z,98.37
2017-10-19T19:17:12.651Z,98.57
2017-10-19T19:18:15.366Z,97.99
2017-10-19T19:19:18.147Z,97.99
2017-10-19T19:20:21.863Z,98.28
2017-10-19T19:21:24.603Z,98.37
2017-10-19T19:22:27.451Z,98.37
2017-10-19T19:23:30.475Z,98.28
2017-10-19T19:24:32.845Z,98.57
2017-10-19T19:25:35.946Z,98.37
2017-10-19T19:26:39.457Z,98.66
